sensor_id;sensor_type;location;lat;lon;timestamp;P1;durP1;ratioP1;P2;durP2;ratioP2
50124;SDS011;36023;48.670;6.184;2022-07-23T00:01:29;2.80;;;1.77;;
50124;SDS011;36023;48.670;6.184;2022-07-23T00:03:55;4.60;;;2.40;;
50124;SDS011;36023;48.670;6.184;2022-07-23T00:06:22;2.55;;;1.75;;
50124;SDS011;36023;48.670;6.184;2022-07-23T00:08:48;2.50;;;1.73;;
50124;SDS011;36023;48.670;6.184;2022-07-23T00:11:14;3.40;;;1.67;;
50124;SDS011;36023;48.670;6.184;2022-07-23T00:13:41;3.03;;;2.05;;
50124;SDS011;36023;48.670;6.184;2022-07-23T00:16:06;4.78;;;2.03;;
50124;SDS011;36023;48.670;6.184;2022-07-23T00:18:33;2.25;;;1.50;;
50124;SDS011;36023;48.670;6.184;2022-07-23T00:20:59;2.63;;;1.80;;
50124;SDS011;36023;48.670;6.184;2022-07-23T00:23:25;9.65;;;1.70;;
50124;SDS011;36023;48.670;6.184;2022-07-23T00:25:51;2.85;;;1.70;;
50124;SDS011;36023;48.670;6.184;2022-07-23T00:28:18;2.00;;;1.60;;
50124;SDS011;36023;48.670;6.184;2022-07-23T00:30:44;2.55;;;1.90;;
50124;SDS011;36023;48.670;6.184;2022-07-23T00:33:10;2.50;;;1.55;;
50124;SDS011;36023;48.670;6.184;2022-07-23T00:35:37;2.88;;;2.05;;
50124;SDS011;36023;48.670;6.184;2022-07-23T00:38:06;3.40;;;2.53;;
50124;SDS011;36023;48.670;6.184;2022-07-23T00:40:33;4.28;;;1.80;;
50124;SDS011;36023;48.670;6.184;2022-07-23T00:42:59;2.60;;;1.88;;
50124;SDS011;36023;48.670;6.184;2022-07-23T00:45:25;2.20;;;1.88;;
50124;SDS011;36023;48.670;6.184;2022-07-23T00:47:52;4.10;;;1.90;;
50124;SDS011;36023;48.670;6.184;2022-07-23T00:50:18;3.63;;;1.95;;
50124;SDS011;36023;48.670;6.184;2022-07-23T00:52:44;3.47;;;1.63;;
50124;SDS011;36023;48.670;6.184;2022-07-23T00:55:10;4.03;;;2.03;;
50124;SDS011;36023;48.670;6.184;2022-07-23T00:57:37;6.55;;;2.13;;
50124;SDS011;36023;48.670;6.184;2022-07-23T01:00:04;6.20;;;1.80;;
50124;SDS011;36023;48.670;6.184;2022-07-23T01:02:32;2.88;;;1.92;;
50124;SDS011;36023;48.670;6.184;2022-07-23T01:04:59;3.13;;;2.38;;
50124;SDS011;36023;48.670;6.184;2022-07-23T01:07:24;2.90;;;1.88;;
50124;SDS011;36023;48.670;6.184;2022-07-23T01:09:53;4.57;;;2.20;;
50124;SDS011;36023;48.670;6.184;2022-07-23T01:12:19;3.72;;;2.03;;
50124;SDS011;36023;48.670;6.184;2022-07-23T01:14:56;2.83;;;2.00;;
50124;SDS011;36023;48.670;6.184;2022-07-23T01:17:23;2.45;;;1.83;;
50124;SDS011;36023;48.670;6.184;2022-07-23T01:19:50;5.95;;;2.55;;
50124;SDS011;36023;48.670;6.184;2022-07-23T01:22:18;3.90;;;2.40;;
50124;SDS011;36023;48.670;6.184;2022-07-23T01:24:45;3.22;;;2.35;;
50124;SDS011;36023;48.670;6.184;2022-07-23T01:27:11;3.22;;;2.15;;
50124;SDS011;36023;48.670;6.184;2022-07-23T01:29:38;4.18;;;1.85;;
50124;SDS011;36023;48.670;6.184;2022-07-23T01:32:09;3.55;;;2.28;;
50124;SDS011;36023;48.670;6.184;2022-07-23T01:34:35;4.40;;;1.88;;
50124;SDS011;36023;48.670;6.184;2022-07-23T01:37:01;3.40;;;1.92;;
50124;SDS011;36023;48.670;6.184;2022-07-23T01:39:27;5.35;;;1.88;;
50124;SDS011;36023;48.670;6.184;2022-07-23T01:41:53;3.47;;;1.77;;
50124;SDS011;36023;48.670;6.184;2022-07-23T01:44:19;2.72;;;1.80;;
50124;SDS011;36023;48.670;6.184;2022-07-23T01:46:47;2.95;;;2.08;;
50124;SDS011;36023;48.670;6.184;2022-07-23T01:49:14;2.33;;;1.85;;
50124;SDS011;36023;48.670;6.184;2022-07-23T01:52:07;3.60;;;2.05;;
50124;SDS011;36023;48.670;6.184;2022-07-23T01:54:42;5.00;;;2.23;;
50124;SDS011;36023;48.670;6.184;2022-07-23T01:57:08;5.57;;;2.53;;
50124;SDS011;36023;48.670;6.184;2022-07-23T01:59:34;3.45;;;1.83;;
50124;SDS011;36023;48.670;6.184;2022-07-23T02:02:00;3.53;;;2.20;;
50124;SDS011;36023;48.670;6.184;2022-07-23T02:04:27;2.65;;;2.10;;
50124;SDS011;36023;48.670;6.184;2022-07-23T02:06:54;3.85;;;2.47;;
50124;SDS011;36023;48.670;6.184;2022-07-23T02:09:21;3.75;;;2.42;;
50124;SDS011;36023;48.670;6.184;2022-07-23T02:11:46;3.47;;;2.50;;
50124;SDS011;36023;48.670;6.184;2022-07-23T02:14:12;5.28;;;2.33;;
50124;SDS011;36023;48.670;6.184;2022-07-23T02:16:39;2.83;;;2.17;;
50124;SDS011;36023;48.670;6.184;2022-07-23T02:19:06;2.78;;;2.08;;
50124;SDS011;36023;48.670;6.184;2022-07-23T02:21:31;3.92;;;2.47;;
50124;SDS011;36023;48.670;6.184;2022-07-23T02:23:57;2.08;;;1.83;;
50124;SDS011;36023;48.670;6.184;2022-07-23T02:26:23;2.72;;;2.00;;
50124;SDS011;36023;48.670;6.184;2022-07-23T02:28:51;3.05;;;2.40;;
50124;SDS011;36023;48.670;6.184;2022-07-23T02:31:18;6.45;;;3.13;;
50124;SDS011;36023;48.670;6.184;2022-07-23T02:33:44;3.65;;;2.63;;
50124;SDS011;36023;48.670;6.184;2022-07-23T02:36:10;4.57;;;2.33;;
50124;SDS011;36023;48.670;6.184;2022-07-23T02:38:35;7.38;;;2.67;;
50124;SDS011;36023;48.670;6.184;2022-07-23T02:41:02;4.20;;;2.20;;
50124;SDS011;36023;48.670;6.184;2022-07-23T02:43:28;4.18;;;2.17;;
50124;SDS011;36023;48.670;6.184;2022-07-23T02:45:54;2.78;;;2.25;;
50124;SDS011;36023;48.670;6.184;2022-07-23T02:48:20;3.10;;;2.17;;
50124;SDS011;36023;48.670;6.184;2022-07-23T02:50:48;4.18;;;2.58;;
50124;SDS011;36023;48.670;6.184;2022-07-23T02:53:18;3.08;;;2.28;;
50124;SDS011;36023;48.670;6.184;2022-07-23T02:55:44;9.05;;;2.13;;
50124;SDS011;36023;48.670;6.184;2022-07-23T02:58:10;5.45;;;2.28;;
50124;SDS011;36023;48.670;6.184;2022-07-23T03:00:36;2.47;;;2.00;;
50124;SDS011;36023;48.670;6.184;2022-07-23T03:03:01;3.83;;;2.10;;
50124;SDS011;36023;48.670;6.184;2022-07-23T03:05:27;3.53;;;2.35;;
50124;SDS011;36023;48.670;6.184;2022-07-23T03:07:53;4.47;;;2.45;;
50124;SDS011;36023;48.670;6.184;2022-07-23T03:10:19;3.38;;;2.45;;
50124;SDS011;36023;48.670;6.184;2022-07-23T03:12:45;3.80;;;2.28;;
50124;SDS011;36023;48.670;6.184;2022-07-23T03:15:11;4.75;;;2.20;;
50124;SDS011;36023;48.670;6.184;2022-07-23T03:17:40;3.60;;;2.58;;
50124;SDS011;36023;48.670;6.184;2022-07-23T03:20:06;3.13;;;2.35;;
50124;SDS011;36023;48.670;6.184;2022-07-23T03:22:32;4.57;;;2.60;;
50124;SDS011;36023;48.670;6.184;2022-07-23T03:24:58;5.00;;;2.80;;
50124;SDS011;36023;48.670;6.184;2022-07-23T03:27:29;4.47;;;2.70;;
50124;SDS011;36023;48.670;6.184;2022-07-23T03:29:56;3.25;;;2.03;;
50124;SDS011;36023;48.670;6.184;2022-07-23T03:32:23;4.45;;;2.40;;
50124;SDS011;36023;48.670;6.184;2022-07-23T03:34:50;3.92;;;2.55;;
50124;SDS011;36023;48.670;6.184;2022-07-23T03:37:16;4.80;;;2.55;;
50124;SDS011;36023;48.670;6.184;2022-07-23T03:39:46;3.78;;;2.53;;
50124;SDS011;36023;48.670;6.184;2022-07-23T03:42:12;4.10;;;2.20;;
50124;SDS011;36023;48.670;6.184;2022-07-23T03:44:38;3.28;;;2.42;;
50124;SDS011;36023;48.670;6.184;2022-07-23T03:47:06;6.30;;;3.22;;
50124;SDS011;36023;48.670;6.184;2022-07-23T03:49:32;4.55;;;2.78;;
50124;SDS011;36023;48.670;6.184;2022-07-23T03:51:58;3.85;;;2.65;;
50124;SDS011;36023;48.670;6.184;2022-07-23T03:54:24;8.27;;;2.65;;
50124;SDS011;36023;48.670;6.184;2022-07-23T03:56:50;3.47;;;2.65;;
50124;SDS011;36023;48.670;6.184;2022-07-23T03:59:15;3.45;;;2.30;;
50124;SDS011;36023;48.670;6.184;2022-07-23T04:01:41;4.70;;;2.97;;
50124;SDS011;36023;48.670;6.184;2022-07-23T04:04:07;5.22;;;2.30;;
50124;SDS011;36023;48.670;6.184;2022-07-23T04:06:36;3.78;;;2.35;;
50124;SDS011;36023;48.670;6.184;2022-07-23T04:09:02;3.00;;;2.20;;
50124;SDS011;36023;48.670;6.184;2022-07-23T04:11:31;3.22;;;2.50;;
50124;SDS011;36023;48.670;6.184;2022-07-23T04:13:57;5.28;;;2.33;;
50124;SDS011;36023;48.670;6.184;2022-07-23T04:16:23;5.75;;;2.45;;
50124;SDS011;36023;48.670;6.184;2022-07-23T04:18:49;3.85;;;2.55;;
50124;SDS011;36023;48.670;6.184;2022-07-23T04:21:19;4.00;;;2.50;;
50124;SDS011;36023;48.670;6.184;2022-07-23T04:23:46;3.50;;;2.40;;
50124;SDS011;36023;48.670;6.184;2022-07-23T04:26:12;4.03;;;2.35;;
50124;SDS011;36023;48.670;6.184;2022-07-23T04:28:38;4.97;;;2.72;;
50124;SDS011;36023;48.670;6.184;2022-07-23T04:31:04;3.90;;;2.63;;
50124;SDS011;36023;48.670;6.184;2022-07-23T04:33:31;4.45;;;2.88;;
50124;SDS011;36023;48.670;6.184;2022-07-23T04:35:59;3.88;;;2.63;;
50124;SDS011;36023;48.670;6.184;2022-07-23T04:38:24;3.78;;;2.78;;
50124;SDS011;36023;48.670;6.184;2022-07-23T04:40:54;7.65;;;2.75;;
50124;SDS011;36023;48.670;6.184;2022-07-23T04:43:20;6.47;;;2.72;;
50124;SDS011;36023;48.670;6.184;2022-07-23T04:45:48;5.85;;;2.55;;
50124;SDS011;36023;48.670;6.184;2022-07-23T04:48:14;4.60;;;3.33;;
50124;SDS011;36023;48.670;6.184;2022-07-23T04:50:41;4.40;;;2.92;;
50124;SDS011;36023;48.670;6.184;2022-07-23T04:53:14;8.23;;;2.97;;
50124;SDS011;36023;48.670;6.184;2022-07-23T04:55:41;3.42;;;2.40;;
50124;SDS011;36023;48.670;6.184;2022-07-23T04:58:06;3.38;;;2.35;;
50124;SDS011;36023;48.670;6.184;2022-07-23T05:00:32;4.82;;;2.47;;
50124;SDS011;36023;48.670;6.184;2022-07-23T05:02:58;5.13;;;2.70;;
50124;SDS011;36023;48.670;6.184;2022-07-23T05:05:24;4.45;;;2.70;;
50124;SDS011;36023;48.670;6.184;2022-07-23T05:07:52;6.82;;;2.45;;
50124;SDS011;36023;48.670;6.184;2022-07-23T05:10:17;3.05;;;2.45;;
50124;SDS011;36023;48.670;6.184;2022-07-23T05:12:43;2.78;;;2.38;;
50124;SDS011;36023;48.670;6.184;2022-07-23T05:15:09;3.15;;;2.28;;
50124;SDS011;36023;48.670;6.184;2022-07-23T05:17:35;5.50;;;2.60;;
50124;SDS011;36023;48.670;6.184;2022-07-23T05:20:04;5.20;;;2.10;;
50124;SDS011;36023;48.670;6.184;2022-07-23T05:22:30;3.25;;;2.10;;
50124;SDS011;36023;48.670;6.184;2022-07-23T05:24:56;4.47;;;2.60;;
50124;SDS011;36023;48.670;6.184;2022-07-23T05:27:22;4.53;;;2.85;;
50124;SDS011;36023;48.670;6.184;2022-07-23T05:29:47;5.43;;;2.67;;
50124;SDS011;36023;48.670;6.184;2022-07-23T05:32:13;3.40;;;2.10;;
50124;SDS011;36023;48.670;6.184;2022-07-23T05:34:46;3.60;;;2.22;;
50124;SDS011;36023;48.670;6.184;2022-07-23T05:37:11;5.05;;;3.13;;
50124;SDS011;36023;48.670;6.184;2022-07-23T05:39:37;3.50;;;2.47;;
50124;SDS011;36023;48.670;6.184;2022-07-23T05:42:03;4.90;;;2.38;;
50124;SDS011;36023;48.670;6.184;2022-07-23T05:44:29;6.53;;;2.60;;
50124;SDS011;36023;48.670;6.184;2022-07-23T05:46:59;4.20;;;2.97;;
50124;SDS011;36023;48.670;6.184;2022-07-23T05:49:28;3.33;;;2.30;;
50124;SDS011;36023;48.670;6.184;2022-07-23T05:52:03;4.28;;;2.63;;
50124;SDS011;36023;48.670;6.184;2022-07-23T05:54:43;5.05;;;2.72;;
50124;SDS011;36023;48.670;6.184;2022-07-23T05:57:09;3.53;;;2.55;;
50124;SDS011;36023;48.670;6.184;2022-07-23T05:59:35;4.30;;;2.90;;
50124;SDS011;36023;48.670;6.184;2022-07-23T06:02:00;4.45;;;2.53;;
50124;SDS011;36023;48.670;6.184;2022-07-23T06:04:26;3.72;;;2.55;;
50124;SDS011;36023;48.670;6.184;2022-07-23T06:07:10;3.42;;;2.65;;
50124;SDS011;36023;48.670;6.184;2022-07-23T06:09:37;4.60;;;2.72;;
50124;SDS011;36023;48.670;6.184;2022-07-23T06:12:03;3.92;;;2.58;;
50124;SDS011;36023;48.670;6.184;2022-07-23T06:14:30;5.13;;;3.20;;
50124;SDS011;36023;48.670;6.184;2022-07-23T06:16:57;3.28;;;2.40;;
50124;SDS011;36023;48.670;6.184;2022-07-23T06:19:26;5.55;;;2.55;;
50124;SDS011;36023;48.670;6.184;2022-07-23T06:21:52;4.78;;;2.20;;
50124;SDS011;36023;48.670;6.184;2022-07-23T06:24:18;6.10;;;2.85;;
50124;SDS011;36023;48.670;6.184;2022-07-23T06:26:44;5.30;;;2.80;;
50124;SDS011;36023;48.670;6.184;2022-07-23T06:29:10;3.95;;;2.92;;
50124;SDS011;36023;48.670;6.184;2022-07-23T06:31:35;6.07;;;2.83;;
50124;SDS011;36023;48.670;6.184;2022-07-23T06:34:01;3.63;;;2.60;;
50124;SDS011;36023;48.670;6.184;2022-07-23T06:36:27;8.75;;;3.13;;
50124;SDS011;36023;48.670;6.184;2022-07-23T06:38:53;3.78;;;2.17;;
50124;SDS011;36023;48.670;6.184;2022-07-23T06:41:19;4.70;;;2.55;;
50124;SDS011;36023;48.670;6.184;2022-07-23T06:43:44;4.63;;;2.75;;
50124;SDS011;36023;48.670;6.184;2022-07-23T06:46:11;4.97;;;2.85;;
50124;SDS011;36023;48.670;6.184;2022-07-23T06:48:38;3.83;;;2.47;;
50124;SDS011;36023;48.670;6.184;2022-07-23T06:51:04;4.40;;;3.15;;
50124;SDS011;36023;48.670;6.184;2022-07-23T06:53:29;3.13;;;2.30;;
50124;SDS011;36023;48.670;6.184;2022-07-23T06:55:55;4.75;;;2.70;;
50124;SDS011;36023;48.670;6.184;2022-07-23T06:58:21;3.20;;;2.35;;
50124;SDS011;36023;48.670;6.184;2022-07-23T07:00:46;4.10;;;2.60;;
50124;SDS011;36023;48.670;6.184;2022-07-23T07:03:12;4.07;;;2.45;;
50124;SDS011;36023;48.670;6.184;2022-07-23T07:05:38;4.40;;;2.95;;
50124;SDS011;36023;48.670;6.184;2022-07-23T07:08:07;4.35;;;2.65;;
50124;SDS011;36023;48.670;6.184;2022-07-23T07:10:32;5.00;;;3.53;;
50124;SDS011;36023;48.670;6.184;2022-07-23T07:12:58;5.97;;;2.47;;
50124;SDS011;36023;48.670;6.184;2022-07-23T07:15:24;4.82;;;3.05;;
50124;SDS011;36023;48.670;6.184;2022-07-23T07:17:51;2.58;;;2.35;;
50124;SDS011;36023;48.670;6.184;2022-07-23T07:20:16;2.50;;;2.00;;
50124;SDS011;36023;48.670;6.184;2022-07-23T07:22:42;4.10;;;2.83;;
50124;SDS011;36023;48.670;6.184;2022-07-23T07:25:08;2.35;;;1.95;;
50124;SDS011;36023;48.670;6.184;2022-07-23T07:27:34;3.65;;;2.20;;
50124;SDS011;36023;48.670;6.184;2022-07-23T07:30:00;2.92;;;2.13;;
50124;SDS011;36023;48.670;6.184;2022-07-23T07:32:26;4.78;;;2.08;;
50124;SDS011;36023;48.670;6.184;2022-07-23T07:34:51;2.88;;;1.88;;
50124;SDS011;36023;48.670;6.184;2022-07-23T07:37:17;4.43;;;2.17;;
50124;SDS011;36023;48.670;6.184;2022-07-23T07:39:42;3.88;;;2.60;;
50124;SDS011;36023;48.670;6.184;2022-07-23T07:42:08;3.25;;;2.00;;
50124;SDS011;36023;48.670;6.184;2022-07-23T07:44:34;3.65;;;2.35;;
50124;SDS011;36023;48.670;6.184;2022-07-23T07:46:59;5.20;;;1.98;;
50124;SDS011;36023;48.670;6.184;2022-07-23T07:49:27;4.82;;;2.28;;
50124;SDS011;36023;48.670;6.184;2022-07-23T07:51:53;3.42;;;2.50;;
50124;SDS011;36023;48.670;6.184;2022-07-23T07:54:18;4.60;;;2.20;;
50124;SDS011;36023;48.670;6.184;2022-07-23T07:56:44;4.55;;;2.50;;
50124;SDS011;36023;48.670;6.184;2022-07-23T07:59:09;3.28;;;2.25;;
50124;SDS011;36023;48.670;6.184;2022-07-23T08:01:36;3.45;;;1.90;;
50124;SDS011;36023;48.670;6.184;2022-07-23T08:04:02;2.58;;;1.98;;
50124;SDS011;36023;48.670;6.184;2022-07-23T08:06:28;4.30;;;2.45;;
50124;SDS011;36023;48.670;6.184;2022-07-23T08:08:53;3.47;;;2.53;;
50124;SDS011;36023;48.670;6.184;2022-07-23T08:11:19;2.83;;;2.10;;
50124;SDS011;36023;48.670;6.184;2022-07-23T08:13:45;2.80;;;2.15;;
50124;SDS011;36023;48.670;6.184;2022-07-23T08:16:11;2.72;;;2.20;;
50124;SDS011;36023;48.670;6.184;2022-07-23T08:18:38;2.50;;;1.90;;
50124;SDS011;36023;48.670;6.184;2022-07-23T08:21:03;2.97;;;1.95;;
50124;SDS011;36023;48.670;6.184;2022-07-23T08:23:32;3.22;;;2.20;;
50124;SDS011;36023;48.670;6.184;2022-07-23T08:25:58;2.58;;;1.92;;
50124;SDS011;36023;48.670;6.184;2022-07-23T08:28:25;3.42;;;1.92;;
50124;SDS011;36023;48.670;6.184;2022-07-23T08:30:51;2.75;;;1.90;;
50124;SDS011;36023;48.670;6.184;2022-07-23T08:33:17;3.17;;;1.65;;
50124;SDS011;36023;48.670;6.184;2022-07-23T08:35:50;2.97;;;1.98;;
50124;SDS011;36023;48.670;6.184;2022-07-23T08:38:19;2.90;;;1.70;;
50124;SDS011;36023;48.670;6.184;2022-07-23T08:40:47;2.42;;;1.90;;
50124;SDS011;36023;48.670;6.184;2022-07-23T08:43:16;3.72;;;2.22;;
50124;SDS011;36023;48.670;6.184;2022-07-23T08:45:45;2.40;;;1.75;;
50124;SDS011;36023;48.670;6.184;2022-07-23T08:48:19;2.28;;;1.70;;
50124;SDS011;36023;48.670;6.184;2022-07-23T08:50:48;3.50;;;2.08;;
50124;SDS011;36023;48.670;6.184;2022-07-23T08:53:15;2.53;;;1.85;;
50124;SDS011;36023;48.670;6.184;2022-07-23T08:55:43;2.38;;;1.92;;
50124;SDS011;36023;48.670;6.184;2022-07-23T08:58:10;3.85;;;2.20;;
50124;SDS011;36023;48.670;6.184;2022-07-23T09:00:37;2.45;;;2.05;;
50124;SDS011;36023;48.670;6.184;2022-07-23T09:03:02;3.28;;;2.35;;
50124;SDS011;36023;48.670;6.184;2022-07-23T09:05:28;3.03;;;2.10;;
50124;SDS011;36023;48.670;6.184;2022-07-23T09:08:03;2.65;;;1.83;;
50124;SDS011;36023;48.670;6.184;2022-07-23T09:10:30;3.00;;;2.03;;
50124;SDS011;36023;48.670;6.184;2022-07-23T09:13:28;4.65;;;1.75;;
50124;SDS011;36023;48.670;6.184;2022-07-23T09:15:55;2.93;;;2.00;;
50124;SDS011;36023;48.670;6.184;2022-07-23T09:21:07;3.92;;;2.13;;
50124;SDS011;36023;48.670;6.184;2022-07-23T09:26:41;2.90;;;1.70;;
50124;SDS011;36023;48.670;6.184;2022-07-23T09:34:14;2.25;;;1.77;;
50124;SDS011;36023;48.670;6.184;2022-07-23T09:36:42;3.00;;;1.80;;
50124;SDS011;36023;48.670;6.184;2022-07-23T09:39:09;2.33;;;1.55;;
50124;SDS011;36023;48.670;6.184;2022-07-23T09:41:53;1.80;;;1.30;;
50124;SDS011;36023;48.670;6.184;2022-07-23T09:44:19;1.80;;;1.42;;
50124;SDS011;36023;48.670;6.184;2022-07-23T09:46:49;2.55;;;1.30;;
50124;SDS011;36023;48.670;6.184;2022-07-23T09:49:17;1.58;;;1.15;;
50124;SDS011;36023;48.670;6.184;2022-07-23T09:54:21;2.30;;;1.48;;
50124;SDS011;36023;48.670;6.184;2022-07-23T09:56:52;4.05;;;1.52;;
50124;SDS011;36023;48.670;6.184;2022-07-23T09:59:22;1.92;;;1.50;;
50124;SDS011;36023;48.670;6.184;2022-07-23T10:01:50;2.17;;;1.30;;
50124;SDS011;36023;48.670;6.184;2022-07-23T10:04:19;2.15;;;1.40;;
50124;SDS011;36023;48.670;6.184;2022-07-23T10:07:06;2.33;;;1.35;;
50124;SDS011;36023;48.670;6.184;2022-07-23T10:09:56;1.73;;;1.35;;
50124;SDS011;36023;48.670;6.184;2022-07-23T10:12:45;1.90;;;1.27;;
50124;SDS011;36023;48.670;6.184;2022-07-23T10:15:20;1.77;;;1.13;;
50124;SDS011;36023;48.670;6.184;2022-07-23T10:17:48;2.15;;;1.60;;
50124;SDS011;36023;48.670;6.184;2022-07-23T10:20:14;3.60;;;1.83;;
50124;SDS011;36023;48.670;6.184;2022-07-23T10:22:54;2.22;;;1.52;;
50124;SDS011;36023;48.670;6.184;2022-07-23T10:31:09;2.13;;;1.30;;
50124;SDS011;36023;48.670;6.184;2022-07-23T10:36:47;1.95;;;1.15;;
50124;SDS011;36023;48.670;6.184;2022-07-23T10:39:28;2.55;;;1.45;;
50124;SDS011;36023;48.670;6.184;2022-07-23T10:42:13;2.15;;;1.48;;
50124;SDS011;36023;48.670;6.184;2022-07-23T10:44:42;2.85;;;1.70;;
50124;SDS011;36023;48.670;6.184;2022-07-23T10:47:11;2.83;;;1.20;;
50124;SDS011;36023;48.670;6.184;2022-07-23T10:49:48;2.78;;;1.33;;
50124;SDS011;36023;48.670;6.184;2022-07-23T10:54:39;2.15;;;1.20;;
50124;SDS011;36023;48.670;6.184;2022-07-23T10:57:09;2.42;;;1.55;;
50124;SDS011;36023;48.670;6.184;2022-07-23T11:02:26;2.05;;;1.30;;
50124;SDS011;36023;48.670;6.184;2022-07-23T11:04:54;2.35;;;1.58;;
50124;SDS011;36023;48.670;6.184;2022-07-23T11:07:25;4.28;;;1.40;;
50124;SDS011;36023;48.670;6.184;2022-07-23T11:09:52;1.77;;;1.10;;
50124;SDS011;36023;48.670;6.184;2022-07-23T11:20:24;1.52;;;1.23;;
50124;SDS011;36023;48.670;6.184;2022-07-23T11:22:51;2.15;;;1.27;;
50124;SDS011;36023;48.670;6.184;2022-07-23T11:27:48;1.75;;;1.45;;
50124;SDS011;36023;48.670;6.184;2022-07-23T11:35:37;1.70;;;1.10;;
50124;SDS011;36023;48.670;6.184;2022-07-23T11:38:05;1.70;;;1.30;;
50124;SDS011;36023;48.670;6.184;2022-07-23T11:40:52;1.73;;;1.15;;
50124;SDS011;36023;48.670;6.184;2022-07-23T11:43:20;2.00;;;1.08;;
50124;SDS011;36023;48.670;6.184;2022-07-23T11:45:51;2.00;;;1.10;;
50124;SDS011;36023;48.670;6.184;2022-07-23T11:48:22;1.48;;;1.20;;
50124;SDS011;36023;48.670;6.184;2022-07-23T11:50:52;1.73;;;1.20;;
50124;SDS011;36023;48.670;6.184;2022-07-23T11:53:25;2.20;;;1.50;;
50124;SDS011;36023;48.670;6.184;2022-07-23T11:55:53;1.85;;;1.13;;
50124;SDS011;36023;48.670;6.184;2022-07-23T11:58:20;1.40;;;1.13;;
50124;SDS011;36023;48.670;6.184;2022-07-23T12:00:46;2.33;;;1.40;;
50124;SDS011;36023;48.670;6.184;2022-07-23T12:03:12;2.35;;;1.33;;
50124;SDS011;36023;48.670;6.184;2022-07-23T12:05:38;1.60;;;1.23;;
50124;SDS011;36023;48.670;6.184;2022-07-23T12:08:05;2.03;;;1.17;;
50124;SDS011;36023;48.670;6.184;2022-07-23T12:10:34;1.73;;;1.20;;
50124;SDS011;36023;48.670;6.184;2022-07-23T12:13:08;1.73;;;1.20;;
50124;SDS011;36023;48.670;6.184;2022-07-23T12:15:36;1.33;;;1.15;;
50124;SDS011;36023;48.670;6.184;2022-07-23T12:18:09;1.98;;;1.48;;
50124;SDS011;36023;48.670;6.184;2022-07-23T12:20:40;1.55;;;1.15;;
50124;SDS011;36023;48.670;6.184;2022-07-23T12:23:08;2.15;;;1.58;;
50124;SDS011;36023;48.670;6.184;2022-07-23T12:25:36;1.95;;;1.23;;
50124;SDS011;36023;48.670;6.184;2022-07-23T12:33:05;2.08;;;1.30;;
50124;SDS011;36023;48.670;6.184;2022-07-23T12:35:36;1.73;;;1.20;;
50124;SDS011;36023;48.670;6.184;2022-07-23T12:38:10;2.17;;;1.30;;
50124;SDS011;36023;48.670;6.184;2022-07-23T12:40:44;2.22;;;1.27;;
50124;SDS011;36023;48.670;6.184;2022-07-23T12:43:24;1.92;;;1.08;;
50124;SDS011;36023;48.670;6.184;2022-07-23T12:46:08;2.58;;;1.67;;
50124;SDS011;36023;48.670;6.184;2022-07-23T12:48:36;1.80;;;1.17;;
50124;SDS011;36023;48.670;6.184;2022-07-23T12:51:04;1.73;;;1.33;;
50124;SDS011;36023;48.670;6.184;2022-07-23T12:53:46;1.52;;;1.33;;
50124;SDS011;36023;48.670;6.184;2022-07-23T12:56:17;4.18;;;1.48;;
50124;SDS011;36023;48.670;6.184;2022-07-23T12:58:59;2.30;;;1.30;;
50124;SDS011;36023;48.670;6.184;2022-07-23T13:01:32;1.50;;;1.20;;
50124;SDS011;36023;48.670;6.184;2022-07-23T13:06:36;2.15;;;1.40;;
50124;SDS011;36023;48.670;6.184;2022-07-23T13:09:20;1.52;;;1.23;;
50124;SDS011;36023;48.670;6.184;2022-07-23T13:11:48;1.92;;;1.40;;
50124;SDS011;36023;48.670;6.184;2022-07-23T13:14:16;2.15;;;1.40;;
50124;SDS011;36023;48.670;6.184;2022-07-23T13:16:42;2.67;;;1.10;;
50124;SDS011;36023;48.670;6.184;2022-07-23T13:19:11;1.98;;;1.23;;
50124;SDS011;36023;48.670;6.184;2022-07-23T13:21:37;2.50;;;1.40;;
50124;SDS011;36023;48.670;6.184;2022-07-23T13:24:03;1.80;;;1.30;;
50124;SDS011;36023;48.670;6.184;2022-07-23T13:26:29;1.67;;;1.20;;
50124;SDS011;36023;48.670;6.184;2022-07-23T13:28:55;2.38;;;1.35;;
50124;SDS011;36023;48.670;6.184;2022-07-23T13:31:21;2.15;;;1.40;;
50124;SDS011;36023;48.670;6.184;2022-07-23T13:33:46;2.20;;;1.40;;
50124;SDS011;36023;48.670;6.184;2022-07-23T13:36:13;1.75;;;1.42;;
50124;SDS011;36023;48.670;6.184;2022-07-23T13:38:39;2.28;;;1.52;;
50124;SDS011;36023;48.670;6.184;2022-07-23T13:41:05;2.20;;;1.38;;
50124;SDS011;36023;48.670;6.184;2022-07-23T13:43:31;2.08;;;1.42;;
50124;SDS011;36023;48.670;6.184;2022-07-23T13:45:57;1.55;;;1.27;;
50124;SDS011;36023;48.670;6.184;2022-07-23T13:48:23;1.50;;;1.08;;
50124;SDS011;36023;48.670;6.184;2022-07-23T13:50:50;2.45;;;1.35;;
50124;SDS011;36023;48.670;6.184;2022-07-23T13:53:18;1.90;;;1.38;;
50124;SDS011;36023;48.670;6.184;2022-07-23T13:55:46;1.50;;;1.05;;
50124;SDS011;36023;48.670;6.184;2022-07-23T13:58:12;1.98;;;1.00;;
50124;SDS011;36023;48.670;6.184;2022-07-23T14:00:40;3.65;;;1.60;;
50124;SDS011;36023;48.670;6.184;2022-07-23T14:03:09;2.33;;;1.67;;
50124;SDS011;36023;48.670;6.184;2022-07-23T14:05:35;1.83;;;1.52;;
50124;SDS011;36023;48.670;6.184;2022-07-23T14:08:01;2.45;;;1.83;;
50124;SDS011;36023;48.670;6.184;2022-07-23T14:10:28;1.42;;;1.10;;
50124;SDS011;36023;48.670;6.184;2022-07-23T14:12:56;3.35;;;1.33;;
50124;SDS011;36023;48.670;6.184;2022-07-23T14:15:23;1.65;;;1.48;;
50124;SDS011;36023;48.670;6.184;2022-07-23T14:17:55;2.55;;;1.80;;
50124;SDS011;36023;48.670;6.184;2022-07-23T14:20:21;1.80;;;1.27;;
50124;SDS011;36023;48.670;6.184;2022-07-23T14:22:47;1.38;;;0.80;;
50124;SDS011;36023;48.670;6.184;2022-07-23T14:25:14;1.70;;;1.33;;
50124;SDS011;36023;48.670;6.184;2022-07-23T14:27:41;2.63;;;1.50;;
50124;SDS011;36023;48.670;6.184;2022-07-23T14:30:07;3.05;;;1.40;;
50124;SDS011;36023;48.670;6.184;2022-07-23T14:32:34;1.90;;;1.25;;
50124;SDS011;36023;48.670;6.184;2022-07-23T14:35:00;4.93;;;1.40;;
50124;SDS011;36023;48.670;6.184;2022-07-23T14:37:25;2.15;;;1.20;;
50124;SDS011;36023;48.670;6.184;2022-07-23T14:39:51;1.95;;;1.23;;
50124;SDS011;36023;48.670;6.184;2022-07-23T14:42:17;2.55;;;1.65;;
50124;SDS011;36023;48.670;6.184;2022-07-23T14:44:43;1.67;;;1.00;;
50124;SDS011;36023;48.670;6.184;2022-07-23T14:47:10;1.77;;;1.10;;
50124;SDS011;36023;48.670;6.184;2022-07-23T14:49:36;2.42;;;1.10;;
50124;SDS011;36023;48.670;6.184;2022-07-23T14:52:03;1.80;;;1.27;;
50124;SDS011;36023;48.670;6.184;2022-07-23T14:54:30;2.17;;;1.27;;
50124;SDS011;36023;48.670;6.184;2022-07-23T14:56:56;1.95;;;1.00;;
50124;SDS011;36023;48.670;6.184;2022-07-23T14:59:23;2.15;;;1.30;;
50124;SDS011;36023;48.670;6.184;2022-07-23T15:01:49;1.98;;;1.15;;
50124;SDS011;36023;48.670;6.184;2022-07-23T15:04:16;2.58;;;1.70;;
50124;SDS011;36023;48.670;6.184;2022-07-23T15:06:42;1.63;;;1.20;;
50124;SDS011;36023;48.670;6.184;2022-07-23T15:09:08;2.00;;;1.13;;
50124;SDS011;36023;48.670;6.184;2022-07-23T15:11:35;1.65;;;1.10;;
50124;SDS011;36023;48.670;6.184;2022-07-23T15:14:06;1.95;;;1.30;;
50124;SDS011;36023;48.670;6.184;2022-07-23T15:16:33;2.70;;;1.40;;
50124;SDS011;36023;48.670;6.184;2022-07-23T15:19:00;1.70;;;1.27;;
50124;SDS011;36023;48.670;6.184;2022-07-23T15:21:28;2.15;;;1.70;;
50124;SDS011;36023;48.670;6.184;2022-07-23T15:23:55;2.67;;;1.10;;
50124;SDS011;36023;48.670;6.184;2022-07-23T15:26:24;1.45;;;1.02;;
50124;SDS011;36023;48.670;6.184;2022-07-23T15:28:53;2.58;;;1.60;;
50124;SDS011;36023;48.670;6.184;2022-07-23T15:31:19;2.80;;;1.38;;
50124;SDS011;36023;48.670;6.184;2022-07-23T15:33:45;1.58;;;1.05;;
50124;SDS011;36023;48.670;6.184;2022-07-23T15:36:11;1.73;;;1.05;;
50124;SDS011;36023;48.670;6.184;2022-07-23T15:38:36;2.00;;;1.27;;
50124;SDS011;36023;48.670;6.184;2022-07-23T15:41:02;1.63;;;1.08;;
50124;SDS011;36023;48.670;6.184;2022-07-23T15:43:29;2.17;;;1.10;;